createdAt,value
2023-05-18T00:01:54.068Z,18.23
2023-05-18T00:04:24.117Z,18.20
2023-05-18T00:06:57.665Z,18.17
2023-05-18T00:09:28.384Z,18.12
2023-05-18T00:11:56.524Z,18.10
2023-05-18T00:14:24.369Z,18.10
2023-05-18T00:16:54.101Z,18.10
2023-05-18T00:19:24.593Z,18.03
2023-05-18T00:21:52.706Z,18.04
2023-05-18T00:24:20.796Z,18.09
2023-05-18T00:26:49.260Z,18.04
2023-05-18T00:29:17.458Z,17.99
2023-05-18T00:31:45.987Z,18.01
2023-05-18T00:34:14.446Z,18.02
2023-05-18T00:36:45.269Z,18.02
2023-05-18T00:39:13.053Z,18.11
2023-05-18T00:41:40.804Z,17.95
2023-05-18T00:44:08.378Z,17.92
2023-05-18T00:46:36.554Z,17.92
2023-05-18T00:49:03.758Z,17.83
2023-05-18T00:51:33.508Z,17.88
2023-05-18T00:54:05.981Z,17.91
2023-05-18T00:56:34.306Z,17.88
2023-05-18T00:59:03.466Z,17.81
2023-05-18T01:01:35.244Z,17.77
2023-05-18T01:04:03.672Z,17.64
2023-05-18T01:06:36.176Z,17.65
2023-05-18T01:09:05.418Z,17.65
2023-05-18T01:11:53.160Z,17.65
2023-05-18T01:14:49.979Z,17.59
2023-05-18T01:17:51.173Z,17.57
2023-05-18T01:20:23.153Z,17.54
2023-05-18T01:23:10.349Z,17.52
2023-05-18T01:25:43.339Z,17.54
2023-05-18T01:28:14.673Z,17.51
2023-05-18T01:30:43.052Z,17.55
2023-05-18T01:33:12.169Z,17.59
2023-05-18T01:35:41.699Z,17.59
2023-05-18T01:38:09.572Z,17.65
2023-05-18T01:41:16.002Z,17.70
2023-05-18T01:44:06.224Z,17.65
2023-05-18T01:46:55.299Z,17.75
2023-05-18T01:49:40.563Z,17.74
2023-05-18T01:52:09.892Z,17.75
2023-05-18T01:54:38.713Z,17.76
2023-05-18T01:57:09.569Z,17.70
2023-05-18T01:59:38.180Z,17.65
2023-05-18T02:02:05.627Z,17.73
2023-05-18T02:04:35.268Z,17.74
2023-05-18T02:07:03.138Z,17.68
2023-05-18T02:09:30.659Z,17.66
2023-05-18T02:11:58.230Z,17.73
2023-05-18T02:14:26.048Z,17.70
2023-05-18T02:16:53.957Z,17.73
2023-05-18T02:19:21.908Z,17.76
2023-05-18T02:21:50.180Z,17.72
2023-05-18T02:24:21.366Z,17.66
2023-05-18T02:26:49.527Z,17.72
2023-05-18T02:29:17.165Z,17.72
2023-05-18T02:31:45.254Z,17.67
2023-05-18T02:34:12.824Z,17.62
2023-05-18T02:36:40.862Z,17.54
2023-05-18T02:39:07.789Z,17.63
2023-05-18T02:41:35.655Z,17.50
2023-05-18T02:44:04.124Z,17.51
2023-05-18T02:46:31.977Z,17.45
2023-05-18T02:48:59.990Z,17.55
2023-05-18T02:51:28.013Z,17.54
2023-05-18T02:53:55.106Z,17.53
2023-05-18T02:56:22.768Z,17.46
2023-05-18T02:58:50.557Z,17.42
2023-05-18T03:01:18.872Z,17.40
2023-05-18T03:03:47.443Z,17.39
2023-05-18T03:06:16.314Z,17.34
2023-05-18T03:08:44.240Z,17.27
2023-05-18T03:11:12.171Z,17.25
2023-05-18T03:13:40.186Z,17.18
2023-05-18T03:16:08.507Z,17.20
2023-05-18T03:18:36.303Z,17.22
2023-05-18T03:21:04.461Z,17.18
2023-05-18T03:23:32.135Z,17.15
2023-05-18T03:26:03.943Z,17.19
2023-05-18T03:28:32.066Z,17.21
2023-05-18T03:31:00.075Z,17.11
2023-05-18T03:33:28.303Z,17.10
2023-05-18T03:35:56.102Z,17.08
2023-05-18T03:38:23.997Z,17.10
2023-05-18T03:40:51.552Z,17.05
2023-05-18T03:43:19.581Z,17.02
2023-05-18T03:45:47.989Z,17.00
2023-05-18T03:48:15.940Z,16.99
2023-05-18T03:50:43.921Z,17.01
2023-05-18T03:53:12.018Z,16.94
2023-05-18T03:55:40.029Z,16.96
2023-05-18T03:58:07.830Z,16.98
2023-05-18T04:00:35.949Z,17.01
2023-05-18T04:03:04.830Z,17.04
2023-05-18T04:05:32.888Z,17.18
2023-05-18T04:08:00.954Z,17.08
2023-05-18T04:10:29.229Z,17.13
2023-05-18T04:12:56.864Z,17.12
2023-05-18T04:15:25.036Z,17.27
2023-05-18T04:17:53.971Z,17.30
2023-05-18T04:20:22.102Z,17.34
2023-05-18T04:22:49.678Z,17.37
2023-05-18T04:25:17.320Z,17.43
2023-05-18T04:27:50.545Z,17.47
2023-05-18T04:30:22.191Z,17.49
2023-05-18T04:32:50.177Z,17.54
2023-05-18T04:35:18.633Z,17.57
2023-05-18T04:37:46.603Z,17.61
2023-05-18T04:40:14.436Z,17.63
2023-05-18T04:42:48.695Z,17.67
2023-05-18T04:45:23.045Z,17.69
2023-05-18T04:47:54.359Z,17.72
2023-05-18T04:50:26.128Z,17.77
2023-05-18T04:52:54.049Z,17.82
2023-05-18T04:55:29.481Z,17.84
2023-05-18T04:57:57.989Z,17.87
2023-05-18T05:00:26.445Z,17.83
2023-05-18T05:02:54.910Z,17.85
2023-05-18T05:05:27.548Z,17.94
2023-05-18T05:07:56.050Z,17.95
2023-05-18T05:10:24.084Z,17.99
2023-05-18T05:12:52.009Z,18.14
2023-05-18T05:15:20.567Z,18.11
2023-05-18T05:17:48.110Z,18.11
2023-05-18T05:20:16.733Z,18.11
2023-05-18T05:22:45.087Z,18.14
2023-05-18T05:25:12.777Z,18.26
2023-05-18T05:27:40.580Z,18.29
2023-05-18T05:30:10.701Z,18.40
2023-05-18T05:32:38.731Z,18.55
2023-05-18T05:35:08.096Z,18.63
2023-05-18T05:37:36.165Z,18.67
2023-05-18T05:40:06.790Z,18.64
2023-05-18T05:42:34.900Z,18.69
2023-05-18T05:45:02.993Z,18.74
2023-05-18T05:47:30.612Z,18.85
2023-05-18T05:50:00.909Z,18.86
2023-05-18T05:52:29.210Z,18.95
2023-05-18T05:54:57.357Z,18.91
2023-05-18T05:57:25.616Z,18.88
2023-05-18T05:59:53.561Z,18.88
2023-05-18T06:02:21.544Z,18.84
2023-05-18T06:04:49.496Z,18.83
2023-05-18T06:07:17.116Z,18.78
2023-05-18T06:09:45.193Z,18.81
2023-05-18T06:12:12.902Z,18.83
2023-05-18T06:14:40.459Z,18.88
2023-05-18T06:17:08.475Z,18.92
2023-05-18T06:19:36.470Z,18.90
2023-05-18T06:22:03.976Z,18.92
2023-05-18T06:24:31.984Z,18.93
2023-05-18T06:26:59.665Z,18.93
2023-05-18T06:29:27.576Z,18.97
2023-05-18T06:31:55.298Z,19.05
2023-05-18T06:34:22.989Z,19.04
2023-05-18T06:36:50.907Z,19.04
2023-05-18T06:39:18.957Z,19.06
2023-05-18T06:41:46.870Z,19.11
2023-05-18T06:44:14.970Z,19.14
2023-05-18T06:46:43.147Z,19.18
2023-05-18T06:49:11.220Z,19.21
2023-05-18T06:51:39.668Z,19.28
2023-05-18T06:54:07.577Z,19.33
2023-05-18T06:56:35.484Z,19.38
2023-05-18T06:59:03.423Z,19.34
2023-05-18T07:01:31.123Z,19.36
2023-05-18T07:03:58.916Z,19.45
2023-05-18T07:06:27.274Z,19.48
2023-05-18T07:08:55.426Z,19.44
2023-05-18T07:11:23.940Z,19.56
2023-05-18T07:13:53.915Z,19.58
2023-05-18T07:16:21.700Z,19.58
2023-05-18T07:18:49.796Z,19.63
2023-05-18T07:21:17.646Z,19.70
2023-05-18T07:23:45.999Z,19.78
2023-05-18T07:26:13.983Z,19.80
2023-05-18T07:28:42.062Z,19.86
2023-05-18T07:31:10.084Z,19.93
2023-05-18T07:33:40.417Z,19.88
2023-05-18T07:36:09.988Z,19.93
2023-05-18T07:38:38.061Z,19.97
2023-05-18T07:41:06.222Z,20.03
2023-05-18T07:43:34.621Z,20.03
2023-05-18T07:46:02.881Z,20.11
2023-05-18T07:48:30.814Z,20.15
2023-05-18T07:50:58.946Z,20.18
2023-05-18T07:53:26.659Z,20.14
2023-05-18T07:55:58.079Z,20.18
2023-05-18T07:58:27.561Z,20.27
2023-05-18T08:00:59.839Z,20.28
2023-05-18T08:03:28.217Z,20.29
2023-05-18T08:05:55.848Z,20.34
2023-05-18T08:08:24.927Z,20.40
2023-05-18T08:11:00.560Z,20.41
2023-05-18T08:13:28.559Z,20.54
2023-05-18T08:16:10.563Z,20.60
2023-05-18T08:18:39.064Z,20.71
2023-05-18T08:21:09.946Z,20.76
2023-05-18T08:23:36.952Z,20.87
2023-05-18T08:26:05.030Z,20.91
2023-05-18T08:28:34.887Z,21.00
2023-05-18T08:31:02.503Z,21.13
2023-05-18T08:33:32.384Z,21.15
2023-05-18T08:36:02.096Z,21.18
2023-05-18T08:38:32.312Z,21.16
2023-05-18T08:41:08.404Z,21.20
2023-05-18T08:43:37.433Z,21.32
2023-05-18T08:46:25.452Z,21.36
2023-05-18T08:48:57.136Z,21.24
2023-05-18T08:51:27.272Z,21.20
2023-05-18T08:53:56.916Z,21.17
2023-05-18T08:56:25.639Z,21.11
2023-05-18T08:58:57.180Z,21.25
2023-05-18T09:01:31.378Z,21.32
2023-05-18T09:03:59.918Z,21.44
2023-05-18T09:06:30.562Z,21.62
2023-05-18T09:09:06.327Z,21.85
2023-05-18T09:11:34.725Z,21.92
2023-05-18T09:14:02.822Z,22.06
2023-05-18T09:16:30.806Z,22.15
2023-05-18T09:18:58.704Z,22.26
2023-05-18T09:21:26.403Z,22.33
2023-05-18T09:23:57.008Z,22.40
2023-05-18T09:26:25.101Z,22.46
2023-05-18T09:28:53.274Z,22.57
2023-05-18T09:31:21.356Z,22.83
2023-05-18T09:33:48.937Z,23.08
2023-05-18T09:36:17.225Z,23.22
2023-05-18T09:39:10.180Z,23.31
2023-05-18T09:41:40.467Z,23.49
2023-05-18T09:44:12.642Z,23.42
2023-05-18T09:46:40.654Z,23.51
2023-05-18T09:49:08.401Z,23.47
2023-05-18T09:51:39.387Z,23.16
2023-05-18T09:54:08.725Z,22.96
2023-05-18T09:56:37.471Z,22.90
2023-05-18T09:59:12.977Z,23.10
2023-05-18T10:02:03.650Z,23.26
2023-05-18T10:05:00.412Z,23.34
2023-05-18T10:07:28.104Z,23.19
2023-05-18T10:10:02.139Z,23.19
2023-05-18T10:12:30.280Z,23.29
2023-05-18T10:14:57.888Z,23.47
2023-05-18T10:17:26.747Z,23.57
2023-05-18T10:19:55.156Z,23.41
2023-05-18T10:22:23.812Z,23.43
2023-05-18T10:24:51.666Z,23.64
2023-05-18T10:27:20.821Z,23.81
2023-05-18T10:29:50.058Z,24.14
2023-05-18T10:32:18.004Z,24.38
2023-05-18T10:34:46.529Z,24.54
2023-05-18T10:37:14.539Z,24.58
2023-05-18T10:42:09.577Z,24.79
2023-05-18T10:44:36.700Z,24.92
2023-05-18T10:47:06.133Z,24.90
2023-05-18T10:49:34.505Z,24.92
2023-05-18T10:52:02.471Z,24.80
2023-05-18T10:54:30.461Z,24.86
2023-05-18T10:56:58.100Z,24.97
2023-05-18T10:59:26.178Z,24.91
2023-05-18T11:01:53.656Z,25.02
2023-05-18T11:04:26.976Z,25.11
2023-05-18T11:07:21.380Z,25.08
2023-05-18T11:09:49.881Z,25.00
2023-05-18T11:12:20.178Z,25.21
2023-05-18T11:14:52.646Z,25.60
2023-05-18T11:17:24.080Z,25.60
2023-05-18T11:20:06.382Z,25.71
2023-05-18T11:23:14.917Z,25.58
2023-05-18T11:25:44.154Z,25.39
2023-05-18T11:28:13.838Z,25.50
2023-05-18T11:30:44.966Z,25.50
2023-05-18T11:33:27.542Z,25.33
2023-05-18T11:36:15.033Z,25.30
2023-05-18T11:39:07.944Z,25.19
2023-05-18T11:41:36.783Z,25.24
2023-05-18T11:44:16.588Z,25.35
2023-05-18T11:46:55.588Z,25.75
2023-05-18T11:49:47.210Z,26.46
2023-05-18T11:52:23.431Z,27.04
2023-05-18T11:54:50.338Z,27.45
2023-05-18T11:57:18.621Z,27.78
2023-05-18T12:00:10.033Z,27.78
2023-05-18T12:02:38.315Z,27.51
2023-05-18T12:05:26.573Z,27.13
2023-05-18T12:07:54.520Z,26.75
2023-05-18T12:10:22.596Z,26.88
2023-05-18T12:12:53.510Z,26.93
2023-05-18T12:15:24.199Z,26.86
2023-05-18T12:17:52.459Z,26.58
2023-05-18T12:20:23.210Z,26.38
2023-05-18T12:22:53.397Z,26.45
2023-05-18T12:25:22.924Z,26.54
2023-05-18T12:27:51.020Z,26.86
2023-05-18T12:30:22.514Z,27.29
2023-05-18T12:33:16.462Z,28.00
2023-05-18T12:35:44.449Z,28.46
2023-05-18T12:38:12.447Z,28.89
2023-05-18T12:40:48.956Z,29.03
2023-05-18T12:43:17.045Z,29.09
2023-05-18T12:45:45.001Z,28.85
2023-05-18T12:48:13.651Z,28.92
2023-05-18T12:50:55.766Z,28.80
2023-05-18T12:53:24.279Z,29.39
2023-05-18T12:55:59.711Z,30.83
2023-05-18T12:58:27.758Z,31.89
2023-05-18T13:00:55.817Z,32.15
2023-05-18T13:03:24.679Z,31.79
2023-05-18T13:06:09.044Z,31.07
2023-05-18T13:08:36.997Z,31.17
2023-05-18T13:11:12.647Z,31.83
2023-05-18T13:14:04.546Z,31.77
2023-05-18T13:16:32.160Z,31.95
2023-05-18T13:19:01.062Z,31.69
2023-05-18T13:21:28.970Z,31.56
2023-05-18T13:23:56.488Z,32.38
2023-05-18T13:26:24.554Z,33.52
2023-05-18T13:28:53.662Z,34.35
2023-05-18T13:31:22.370Z,34.80
2023-05-18T13:33:50.578Z,35.05
2023-05-18T13:36:19.602Z,35.53
2023-05-18T13:38:47.511Z,35.41
2023-05-18T13:41:15.433Z,35.26
2023-05-18T13:43:42.725Z,35.67
2023-05-18T13:46:11.039Z,36.14
2023-05-18T13:48:38.686Z,36.65
2023-05-18T13:51:06.634Z,36.74
2023-05-18T13:53:34.687Z,36.75
2023-05-18T13:56:02.385Z,36.58
2023-05-18T13:58:30.160Z,35.99
2023-05-18T14:00:57.677Z,35.73
2023-05-18T14:03:25.884Z,35.85
2023-05-18T14:05:54.074Z,36.03
2023-05-18T14:08:22.352Z,36.05
2023-05-18T14:10:49.942Z,36.26
2023-05-18T14:13:18.125Z,36.52
2023-05-18T14:15:46.406Z,37.24
2023-05-18T14:18:14.393Z,37.68
2023-05-18T14:20:42.313Z,37.56
2023-05-18T14:23:14.257Z,37.10
2023-05-18T14:25:43.758Z,36.41
2023-05-18T14:28:11.614Z,36.42
2023-05-18T14:30:46.886Z,36.72
2023-05-18T14:33:14.984Z,37.21
2023-05-18T14:35:42.621Z,37.21
2023-05-18T14:38:10.845Z,36.95
2023-05-18T14:40:38.781Z,36.84
2023-05-18T14:43:06.405Z,36.98
2023-05-18T14:45:34.347Z,36.96
2023-05-18T14:48:02.387Z,37.40
2023-05-18T14:50:30.656Z,37.22
2023-05-18T14:52:58.766Z,37.54
2023-05-18T14:55:26.461Z,37.88
2023-05-18T14:58:14.880Z,37.97
2023-05-18T15:00:43.064Z,37.90
2023-05-18T15:03:10.935Z,37.52
2023-05-18T15:05:38.804Z,36.61
2023-05-18T15:08:07.479Z,35.56
2023-05-18T15:10:35.512Z,35.17
2023-05-18T15:13:03.313Z,34.17
2023-05-18T15:15:30.864Z,33.59
2023-05-18T15:17:58.825Z,33.78
2023-05-18T15:20:26.903Z,33.96
2023-05-18T15:22:57.762Z,34.43
2023-05-18T15:25:25.717Z,34.63
2023-05-18T15:27:53.722Z,34.90
2023-05-18T15:30:22.225Z,34.52
2023-05-18T15:32:50.163Z,33.83
2023-05-18T15:35:18.602Z,33.30
2023-05-18T15:37:46.527Z,32.87
2023-05-18T15:40:14.116Z,32.40
2023-05-18T15:42:42.029Z,31.98
2023-05-18T15:45:12.447Z,31.94
2023-05-18T15:47:40.569Z,32.13
2023-05-18T15:50:09.528Z,32.30
2023-05-18T15:52:37.458Z,32.48
2023-05-18T15:55:07.318Z,32.54
2023-05-18T15:57:34.991Z,32.95
2023-05-18T16:00:03.091Z,34.02
2023-05-18T16:02:31.016Z,34.73
2023-05-18T16:04:58.838Z,34.83
2023-05-18T16:07:26.743Z,34.03
2023-05-18T16:09:54.740Z,32.85
2023-05-18T16:12:22.896Z,31.81
2023-05-18T16:14:51.818Z,31.14
2023-05-18T16:17:19.850Z,30.70
2023-05-18T16:19:47.424Z,30.34
2023-05-18T16:22:15.511Z,29.96
2023-05-18T16:24:43.679Z,29.50
2023-05-18T16:27:11.168Z,29.29
2023-05-18T16:29:38.780Z,29.04
2023-05-18T16:32:08.328Z,28.84
2023-05-18T16:34:36.266Z,28.63
2023-05-18T16:37:04.069Z,28.41
2023-05-18T16:39:32.204Z,28.10
2023-05-18T16:42:00.507Z,27.84
2023-05-18T16:44:28.332Z,27.50
2023-05-18T16:46:56.190Z,27.28
2023-05-18T16:49:24.396Z,27.06
2023-05-18T16:51:52.143Z,26.83
2023-05-18T16:54:22.476Z,26.63
2023-05-18T16:56:50.715Z,26.41
2023-05-18T16:59:18.308Z,26.27
2023-05-18T17:01:46.272Z,26.05
2023-05-18T17:04:13.926Z,25.67
2023-05-18T17:06:42.199Z,25.42
2023-05-18T17:09:09.859Z,25.15
2023-05-18T17:11:37.761Z,24.91
2023-05-18T17:14:05.222Z,24.80
2023-05-18T17:16:33.576Z,24.60
2023-05-18T17:19:01.567Z,24.46
2023-05-18T17:21:33.399Z,24.42
2023-05-18T17:24:01.147Z,24.31
2023-05-18T17:26:30.664Z,24.24
2023-05-18T17:28:58.522Z,24.23
2023-05-18T17:31:27.075Z,24.16
2023-05-18T17:33:54.810Z,24.17
2023-05-18T17:36:22.855Z,24.25
2023-05-18T17:38:50.948Z,24.26
2023-05-18T17:41:21.389Z,24.22
2023-05-18T17:43:49.321Z,24.19
2023-05-18T17:46:17.240Z,24.10
2023-05-18T17:48:48.365Z,24.04
2023-05-18T17:51:15.840Z,23.91
2023-05-18T17:53:43.497Z,23.85
2023-05-18T17:56:12.593Z,23.79
2023-05-18T17:58:40.058Z,23.67
2023-05-18T18:01:08.576Z,23.65
2023-05-18T18:03:36.715Z,23.56
2023-05-18T18:06:04.874Z,23.50
2023-05-18T18:08:32.751Z,23.34
2023-05-18T18:11:00.314Z,23.24
2023-05-18T18:13:28.383Z,23.12
2023-05-18T18:16:01.372Z,23.09
2023-05-18T18:18:29.305Z,23.00
2023-05-18T18:20:57.630Z,22.90
2023-05-18T18:23:25.144Z,22.89
2023-05-18T18:25:53.035Z,22.86
2023-05-18T18:28:20.947Z,22.88
2023-05-18T18:30:49.043Z,22.87
2023-05-18T18:33:17.053Z,22.83
2023-05-18T18:35:44.457Z,22.63
2023-05-18T18:38:12.934Z,22.57
2023-05-18T18:40:40.375Z,22.50
2023-05-18T18:43:09.753Z,22.48
2023-05-18T18:45:37.242Z,22.42
2023-05-18T18:48:06.487Z,22.37
2023-05-18T18:50:34.522Z,22.28
2023-05-18T18:53:02.449Z,22.26
2023-05-18T18:55:30.589Z,22.19
2023-05-18T18:57:59.560Z,22.05
2023-05-18T19:00:27.655Z,21.95
2023-05-18T19:02:55.704Z,21.95
2023-05-18T19:05:24.468Z,21.94
2023-05-18T19:07:55.625Z,21.96
2023-05-18T19:10:24.400Z,22.02
2023-05-18T19:12:51.990Z,21.95
2023-05-18T19:15:21.261Z,21.91
2023-05-18T19:17:52.812Z,21.90
2023-05-18T19:20:21.779Z,21.87
2023-05-18T19:22:49.280Z,21.84
2023-05-18T19:25:17.141Z,21.82
2023-05-18T19:27:44.871Z,21.83
2023-05-18T19:30:16.553Z,21.86
2023-05-18T19:32:44.428Z,21.87
2023-05-18T19:35:12.919Z,21.82
2023-05-18T19:37:40.379Z,21.78
2023-05-18T19:40:09.149Z,21.71
2023-05-18T19:42:36.709Z,21.71
2023-05-18T19:45:14.933Z,21.70
2023-05-18T19:47:42.867Z,21.72
2023-05-18T19:50:11.647Z,21.70
2023-05-18T19:52:39.220Z,21.77
2023-05-18T19:55:08.219Z,21.74
2023-05-18T19:57:36.144Z,21.70
2023-05-18T20:00:04.801Z,21.66
2023-05-18T20:02:35.748Z,21.65
2023-05-18T20:05:06.434Z,21.58
2023-05-18T20:07:34.578Z,21.54
2023-05-18T20:10:02.596Z,21.53
2023-05-18T20:12:30.186Z,21.50
2023-05-18T20:14:57.851Z,21.38
2023-05-18T20:17:26.012Z,21.41
2023-05-18T20:19:54.044Z,21.37
2023-05-18T20:22:22.733Z,21.33
2023-05-18T20:24:50.571Z,21.32
2023-05-18T20:27:18.619Z,21.32
2023-05-18T20:29:46.663Z,21.28
2023-05-18T20:32:14.520Z,21.28
2023-05-18T20:34:44.529Z,21.25
2023-05-18T20:37:14.244Z,21.26
2023-05-18T20:39:50.249Z,21.29
2023-05-18T20:42:22.038Z,21.46
2023-05-18T20:45:12.484Z,21.43
2023-05-18T20:47:42.198Z,21.32
2023-05-18T20:50:11.055Z,21.28
2023-05-18T20:52:38.852Z,21.24
2023-05-18T20:55:08.076Z,21.14
2023-05-18T20:57:38.335Z,21.17
2023-05-18T21:00:10.795Z,21.20
2023-05-18T21:02:38.891Z,21.15
2023-05-18T21:05:07.952Z,21.16
2023-05-18T21:07:37.748Z,21.17
2023-05-18T21:10:08.527Z,21.14
2023-05-18T21:12:36.915Z,21.14
2023-05-18T21:15:05.135Z,21.06
2023-05-18T21:17:35.048Z,21.04
2023-05-18T21:20:03.266Z,21.01
2023-05-18T21:22:31.164Z,21.08
2023-05-18T21:24:59.380Z,21.03
2023-05-18T21:27:27.736Z,21.01
2023-05-18T21:29:55.328Z,20.97
2023-05-18T21:32:23.806Z,20.91
2023-05-18T21:34:52.192Z,20.87
2023-05-18T21:37:19.798Z,20.83
2023-05-18T21:39:47.839Z,20.81
2023-05-18T21:42:15.437Z,20.80
2023-05-18T21:44:42.997Z,20.79
2023-05-18T21:47:10.669Z,20.80
2023-05-18T21:49:38.382Z,20.74
2023-05-18T21:52:06.458Z,20.73
2023-05-18T21:54:35.689Z,20.66
2023-05-18T21:57:02.820Z,20.62
2023-05-18T21:59:30.841Z,20.61
2023-05-18T22:01:58.361Z,20.67
2023-05-18T22:04:26.214Z,20.65
2023-05-18T22:06:54.718Z,20.58
2023-05-18T22:09:22.249Z,20.55
2023-05-18T22:11:50.171Z,20.48
2023-05-18T22:14:18.304Z,20.41
2023-05-18T22:16:45.957Z,20.37
2023-05-18T22:19:14.065Z,20.36
2023-05-18T22:21:41.945Z,20.32
2023-05-18T22:24:09.663Z,20.31
2023-05-18T22:26:36.300Z,20.31
2023-05-18T22:29:04.300Z,20.32
2023-05-18T22:31:36.766Z,20.33
2023-05-18T22:34:04.519Z,20.32
2023-05-18T22:36:32.246Z,20.32
2023-05-18T22:39:00.116Z,20.31
2023-05-18T22:41:27.734Z,20.33
2023-05-18T22:43:55.296Z,20.33
2023-05-18T22:46:23.032Z,20.28
2023-05-18T22:48:50.663Z,20.25
2023-05-18T22:51:18.793Z,20.24
2023-05-18T22:53:46.478Z,20.17
2023-05-18T22:56:18.418Z,20.14
2023-05-18T22:58:46.233Z,20.13
2023-05-18T23:01:14.004Z,20.10
2023-05-18T23:03:41.927Z,20.14
2023-05-18T23:06:09.497Z,20.11
2023-05-18T23:08:37.886Z,20.12
2023-05-18T23:11:05.988Z,20.05
2023-05-18T23:13:37.692Z,20.00
2023-05-18T23:16:05.797Z,19.97
2023-05-18T23:18:33.817Z,19.93
2023-05-18T23:21:01.850Z,19.90
2023-05-18T23:23:29.778Z,19.91
2023-05-18T23:26:01.143Z,19.89
2023-05-18T23:28:29.783Z,19.89
2023-05-18T23:30:57.694Z,19.87
2023-05-18T23:33:26.374Z,19.82
2023-05-18T23:35:54.466Z,19.79
2023-05-18T23:38:22.490Z,19.79
2023-05-18T23:40:50.187Z,19.78
2023-05-18T23:43:19.768Z,19.78
2023-05-18T23:45:48.617Z,19.79
2023-05-18T23:48:18.031Z,19.70
2023-05-18T23:50:46.578Z,19.77
2023-05-18T23:53:14.576Z,19.82
2023-05-18T23:55:41.632Z,19.81
2023-05-18T23:58:10.466Z,19.76
